sensor_id;sensor_type;location;lat;lon;timestamp;temperature;humidity
70184;DHT22;57554;51.546;6.776;2023-11-21T00:00:44;7.30;75.20
70184;DHT22;57554;51.546;6.776;2023-11-21T00:03:11;7.40;75.20
70184;DHT22;57554;51.546;6.776;2023-11-21T00:05:40;7.40;75.20
70184;DHT22;57554;51.546;6.776;2023-11-21T00:08:07;7.40;75.20
70184;DHT22;57554;51.546;6.776;2023-11-21T00:10:32;7.50;75.20
70184;DHT22;57554;51.546;6.776;2023-11-21T00:12:58;7.50;75.20
70184;DHT22;57554;51.546;6.776;2023-11-21T00:15:23;7.60;75.20
70184;DHT22;57554;51.546;6.776;2023-11-21T00:17:49;7.60;75.20
70184;DHT22;57554;51.546;6.776;2023-11-21T00:20:15;7.60;75.30
70184;DHT22;57554;51.546;6.776;2023-11-21T00:22:40;7.60;75.30
70184;DHT22;57554;51.546;6.776;2023-11-21T00:25:07;7.70;75.40
70184;DHT22;57554;51.546;6.776;2023-11-21T00:27:37;7.70;75.40
70184;DHT22;57554;51.546;6.776;2023-11-21T00:30:03;7.80;75.40
70184;DHT22;57554;51.546;6.776;2023-11-21T00:32:35;7.80;75.40
70184;DHT22;57554;51.546;6.776;2023-11-21T00:35:00;7.80;75.30
70184;DHT22;57554;51.546;6.776;2023-11-21T00:37:26;7.80;75.30
70184;DHT22;57554;51.546;6.776;2023-11-21T00:39:51;7.80;75.40
70184;DHT22;57554;51.546;6.776;2023-11-21T00:42:17;7.80;75.50
70184;DHT22;57554;51.546;6.776;2023-11-21T00:44:42;7.90;75.60
70184;DHT22;57554;51.546;6.776;2023-11-21T00:47:08;7.90;75.60
70184;DHT22;57554;51.546;6.776;2023-11-21T00:49:34;7.90;75.60
70184;DHT22;57554;51.546;6.776;2023-11-21T00:51:59;8.00;75.80
70184;DHT22;57554;51.546;6.776;2023-11-21T00:54:26;8.00;75.80
70184;DHT22;57554;51.546;6.776;2023-11-21T00:56:52;8.00;75.80
70184;DHT22;57554;51.546;6.776;2023-11-21T00:59:17;8.10;75.90
70184;DHT22;57554;51.546;6.776;2023-11-21T01:01:43;8.20;76.00
70184;DHT22;57554;51.546;6.776;2023-11-21T01:04:09;8.20;75.90
70184;DHT22;57554;51.546;6.776;2023-11-21T01:06:35;8.20;75.90
70184;DHT22;57554;51.546;6.776;2023-11-21T01:09:01;8.20;75.90
70184;DHT22;57554;51.546;6.776;2023-11-21T01:11:26;8.20;75.90
70184;DHT22;57554;51.546;6.776;2023-11-21T01:13:52;8.20;75.90
70184;DHT22;57554;51.546;6.776;2023-11-21T01:16:18;8.20;75.90
70184;DHT22;57554;51.546;6.776;2023-11-21T01:18:44;8.20;76.00
70184;DHT22;57554;51.546;6.776;2023-11-21T01:21:09;8.20;76.00
70184;DHT22;57554;51.546;6.776;2023-11-21T01:23:35;8.20;76.10
70184;DHT22;57554;51.546;6.776;2023-11-21T01:26:01;8.20;76.00
70184;DHT22;57554;51.546;6.776;2023-11-21T01:28:26;8.20;76.10
70184;DHT22;57554;51.546;6.776;2023-11-21T01:30:52;8.30;76.10
70184;DHT22;57554;51.546;6.776;2023-11-21T01:33:22;8.30;76.20
70184;DHT22;57554;51.546;6.776;2023-11-21T01:35:47;8.30;76.20
70184;DHT22;57554;51.546;6.776;2023-11-21T01:38:13;8.30;76.30
70184;DHT22;57554;51.546;6.776;2023-11-21T01:40:40;8.30;76.30
70184;DHT22;57554;51.546;6.776;2023-11-21T01:43:05;8.40;76.40
70184;DHT22;57554;51.546;6.776;2023-11-21T01:45:31;8.40;76.40
70184;DHT22;57554;51.546;6.776;2023-11-21T01:47:59;8.50;76.40
70184;DHT22;57554;51.546;6.776;2023-11-21T01:50:26;8.50;76.40
70184;DHT22;57554;51.546;6.776;2023-11-21T01:52:52;8.50;76.40
70184;DHT22;57554;51.546;6.776;2023-11-21T01:55:18;8.50;76.40
70184;DHT22;57554;51.546;6.776;2023-11-21T01:57:45;8.60;76.40
70184;DHT22;57554;51.546;6.776;2023-11-21T02:00:11;8.60;76.50
70184;DHT22;57554;51.546;6.776;2023-11-21T02:02:48;8.60;76.50
70184;DHT22;57554;51.546;6.776;2023-11-21T02:05:18;8.70;76.70
70184;DHT22;57554;51.546;6.776;2023-11-21T02:07:44;8.70;76.60
70184;DHT22;57554;51.546;6.776;2023-11-21T02:10:12;8.70;76.60
70184;DHT22;57554;51.546;6.776;2023-11-21T02:12:40;8.80;76.60
70184;DHT22;57554;51.546;6.776;2023-11-21T02:15:08;8.80;76.50
70184;DHT22;57554;51.546;6.776;2023-11-21T02:17:43;8.80;76.50
70184;DHT22;57554;51.546;6.776;2023-11-21T02:20:10;8.80;76.50
70184;DHT22;57554;51.546;6.776;2023-11-21T02:22:41;8.80;76.50
70184;DHT22;57554;51.546;6.776;2023-11-21T02:25:08;8.80;76.50
70184;DHT22;57554;51.546;6.776;2023-11-21T02:27:33;8.90;76.50
70184;DHT22;57554;51.546;6.776;2023-11-21T02:29:59;8.80;76.60
70184;DHT22;57554;51.546;6.776;2023-11-21T02:32:26;8.90;76.70
70184;DHT22;57554;51.546;6.776;2023-11-21T02:34:52;8.90;76.60
70184;DHT22;57554;51.546;6.776;2023-11-21T02:37:21;8.90;76.70
70184;DHT22;57554;51.546;6.776;2023-11-21T02:39:46;9.00;76.60
70184;DHT22;57554;51.546;6.776;2023-11-21T02:42:12;9.00;76.60
70184;DHT22;57554;51.546;6.776;2023-11-21T02:44:37;9.00;76.60
70184;DHT22;57554;51.546;6.776;2023-11-21T02:47:03;9.00;76.60
70184;DHT22;57554;51.546;6.776;2023-11-21T02:49:29;9.00;76.60
70184;DHT22;57554;51.546;6.776;2023-11-21T02:51:56;9.00;76.60
70184;DHT22;57554;51.546;6.776;2023-11-21T02:54:21;9.00;76.60
70184;DHT22;57554;51.546;6.776;2023-11-21T02:56:49;9.00;76.60
70184;DHT22;57554;51.546;6.776;2023-11-21T02:59:15;9.10;76.50
70184;DHT22;57554;51.546;6.776;2023-11-21T03:01:41;9.10;76.50
70184;DHT22;57554;51.546;6.776;2023-11-21T03:04:07;9.10;76.50
70184;DHT22;57554;51.546;6.776;2023-11-21T03:06:32;9.10;76.60
70184;DHT22;57554;51.546;6.776;2023-11-21T03:08:59;9.10;76.60
70184;DHT22;57554;51.546;6.776;2023-11-21T03:11:24;9.10;76.50
70184;DHT22;57554;51.546;6.776;2023-11-21T03:13:50;9.10;76.60
70184;DHT22;57554;51.546;6.776;2023-11-21T03:16:16;9.10;76.60
70184;DHT22;57554;51.546;6.776;2023-11-21T03:18:41;9.10;76.50
70184;DHT22;57554;51.546;6.776;2023-11-21T03:21:07;9.10;76.50
70184;DHT22;57554;51.546;6.776;2023-11-21T03:23:34;9.10;76.50
70184;DHT22;57554;51.546;6.776;2023-11-21T03:26:01;9.10;76.50
70184;DHT22;57554;51.546;6.776;2023-11-21T03:28:26;9.20;76.50
70184;DHT22;57554;51.546;6.776;2023-11-21T03:30:53;9.20;76.60
70184;DHT22;57554;51.546;6.776;2023-11-21T03:33:18;9.20;76.60
70184;DHT22;57554;51.546;6.776;2023-11-21T03:35:44;9.20;76.60
70184;DHT22;57554;51.546;6.776;2023-11-21T03:38:10;9.20;76.60
70184;DHT22;57554;51.546;6.776;2023-11-21T03:40:36;9.20;76.60
70184;DHT22;57554;51.546;6.776;2023-11-21T03:43:01;9.20;76.60
70184;DHT22;57554;51.546;6.776;2023-11-21T03:45:27;9.30;76.60
70184;DHT22;57554;51.546;6.776;2023-11-21T03:47:52;9.20;76.70
70184;DHT22;57554;51.546;6.776;2023-11-21T03:50:18;9.30;76.70
70184;DHT22;57554;51.546;6.776;2023-11-21T03:52:43;9.30;76.70
70184;DHT22;57554;51.546;6.776;2023-11-21T03:55:09;9.20;76.70
70184;DHT22;57554;51.546;6.776;2023-11-21T03:57:36;9.20;76.70
70184;DHT22;57554;51.546;6.776;2023-11-21T04:00:02;9.30;76.70
70184;DHT22;57554;51.546;6.776;2023-11-21T04:02:29;9.30;76.70
70184;DHT22;57554;51.546;6.776;2023-11-21T04:04:57;9.30;76.70
70184;DHT22;57554;51.546;6.776;2023-11-21T04:07:22;9.30;76.70
70184;DHT22;57554;51.546;6.776;2023-11-21T04:09:48;9.30;76.70
70184;DHT22;57554;51.546;6.776;2023-11-21T04:12:13;9.30;76.80
70184;DHT22;57554;51.546;6.776;2023-11-21T04:14:39;9.30;76.70
70184;DHT22;57554;51.546;6.776;2023-11-21T04:17:05;9.30;76.70
70184;DHT22;57554;51.546;6.776;2023-11-21T04:19:30;9.40;76.60
70184;DHT22;57554;51.546;6.776;2023-11-21T04:21:56;9.30;76.60
70184;DHT22;57554;51.546;6.776;2023-11-21T04:24:21;9.30;76.60
70184;DHT22;57554;51.546;6.776;2023-11-21T04:26:47;9.40;76.60
70184;DHT22;57554;51.546;6.776;2023-11-21T04:29:12;9.30;76.60
70184;DHT22;57554;51.546;6.776;2023-11-21T04:31:38;9.40;76.60
70184;DHT22;57554;51.546;6.776;2023-11-21T04:34:04;9.40;76.70
70184;DHT22;57554;51.546;6.776;2023-11-21T04:36:30;9.40;76.80
70184;DHT22;57554;51.546;6.776;2023-11-21T04:38:56;9.40;76.90
70184;DHT22;57554;51.546;6.776;2023-11-21T04:41:22;9.40;76.90
70184;DHT22;57554;51.546;6.776;2023-11-21T04:43:47;9.40;76.90
70184;DHT22;57554;51.546;6.776;2023-11-21T04:46:13;9.30;77.10
70184;DHT22;57554;51.546;6.776;2023-11-21T04:48:39;9.30;77.30
70184;DHT22;57554;51.546;6.776;2023-11-21T04:51:04;9.30;77.40
70184;DHT22;57554;51.546;6.776;2023-11-21T04:53:30;9.20;77.60
70184;DHT22;57554;51.546;6.776;2023-11-21T04:55:55;9.20;77.80
70184;DHT22;57554;51.546;6.776;2023-11-21T04:58:21;9.20;77.80
70184;DHT22;57554;51.546;6.776;2023-11-21T05:00:46;9.20;77.90
70184;DHT22;57554;51.546;6.776;2023-11-21T05:03:12;9.20;77.80
70184;DHT22;57554;51.546;6.776;2023-11-21T05:05:38;9.30;77.90
70184;DHT22;57554;51.546;6.776;2023-11-21T05:08:03;9.30;77.80
70184;DHT22;57554;51.546;6.776;2023-11-21T05:10:30;9.30;77.70
70184;DHT22;57554;51.546;6.776;2023-11-21T05:12:55;9.20;77.70
70184;DHT22;57554;51.546;6.776;2023-11-21T05:15:21;9.30;77.70
70184;DHT22;57554;51.546;6.776;2023-11-21T05:17:47;9.20;77.70
70184;DHT22;57554;51.546;6.776;2023-11-21T05:20:15;9.20;77.60
70184;DHT22;57554;51.546;6.776;2023-11-21T05:22:46;9.20;77.60
70184;DHT22;57554;51.546;6.776;2023-11-21T05:25:12;9.20;77.50
70184;DHT22;57554;51.546;6.776;2023-11-21T05:27:38;9.20;77.60
70184;DHT22;57554;51.546;6.776;2023-11-21T05:30:05;9.20;77.60
70184;DHT22;57554;51.546;6.776;2023-11-21T05:32:32;9.20;77.60
70184;DHT22;57554;51.546;6.776;2023-11-21T05:34:58;9.20;77.70
70184;DHT22;57554;51.546;6.776;2023-11-21T05:37:24;9.20;77.70
70184;DHT22;57554;51.546;6.776;2023-11-21T05:39:52;9.20;77.70
70184;DHT22;57554;51.546;6.776;2023-11-21T05:42:18;9.20;77.80
70184;DHT22;57554;51.546;6.776;2023-11-21T05:44:43;9.20;77.80
70184;DHT22;57554;51.546;6.776;2023-11-21T05:47:09;9.20;77.90
70184;DHT22;57554;51.546;6.776;2023-11-21T05:49:35;9.10;78.00
70184;DHT22;57554;51.546;6.776;2023-11-21T05:52:01;9.10;78.20
70184;DHT22;57554;51.546;6.776;2023-11-21T05:54:27;9.10;78.40
70184;DHT22;57554;51.546;6.776;2023-11-21T05:56:52;9.10;78.70
70184;DHT22;57554;51.546;6.776;2023-11-21T05:59:18;9.10;78.80
70184;DHT22;57554;51.546;6.776;2023-11-21T06:01:43;9.20;78.70
70184;DHT22;57554;51.546;6.776;2023-11-21T06:04:11;9.30;78.70
70184;DHT22;57554;51.546;6.776;2023-11-21T06:06:36;9.30;78.60
70184;DHT22;57554;51.546;6.776;2023-11-21T06:09:02;9.30;78.60
70184;DHT22;57554;51.546;6.776;2023-11-21T06:11:28;9.40;78.50
70184;DHT22;57554;51.546;6.776;2023-11-21T06:13:54;9.40;78.50
70184;DHT22;57554;51.546;6.776;2023-11-21T06:16:20;9.40;78.60
70184;DHT22;57554;51.546;6.776;2023-11-21T06:18:46;9.40;78.60
70184;DHT22;57554;51.546;6.776;2023-11-21T06:21:12;9.50;78.60
70184;DHT22;57554;51.546;6.776;2023-11-21T06:23:38;9.50;78.50
70184;DHT22;57554;51.546;6.776;2023-11-21T06:26:04;9.60;78.60
70184;DHT22;57554;51.546;6.776;2023-11-21T06:28:30;9.60;78.60
70184;DHT22;57554;51.546;6.776;2023-11-21T06:30:56;9.60;78.50
70184;DHT22;57554;51.546;6.776;2023-11-21T06:33:23;9.60;78.50
70184;DHT22;57554;51.546;6.776;2023-11-21T06:35:48;9.70;78.30
70184;DHT22;57554;51.546;6.776;2023-11-21T06:38:15;9.60;78.40
70184;DHT22;57554;51.546;6.776;2023-11-21T06:40:40;9.60;78.40
70184;DHT22;57554;51.546;6.776;2023-11-21T06:43:06;9.50;78.60
70184;DHT22;57554;51.546;6.776;2023-11-21T06:45:33;9.50;78.80
70184;DHT22;57554;51.546;6.776;2023-11-21T06:47:59;9.50;78.90
70184;DHT22;57554;51.546;6.776;2023-11-21T06:50:25;9.50;79.00
70184;DHT22;57554;51.546;6.776;2023-11-21T06:52:51;9.40;79.10
70184;DHT22;57554;51.546;6.776;2023-11-21T06:55:16;9.40;79.30
70184;DHT22;57554;51.546;6.776;2023-11-21T06:57:42;9.40;79.40
70184;DHT22;57554;51.546;6.776;2023-11-21T07:00:09;9.40;79.50
70184;DHT22;57554;51.546;6.776;2023-11-21T07:02:35;9.40;79.70
70184;DHT22;57554;51.546;6.776;2023-11-21T07:05:00;9.40;79.70
70184;DHT22;57554;51.546;6.776;2023-11-21T07:07:27;9.40;79.70
70184;DHT22;57554;51.546;6.776;2023-11-21T07:09:53;9.40;79.80
70184;DHT22;57554;51.546;6.776;2023-11-21T07:12:18;9.40;79.90
70184;DHT22;57554;51.546;6.776;2023-11-21T07:14:44;9.40;79.90
70184;DHT22;57554;51.546;6.776;2023-11-21T07:17:11;9.40;80.00
70184;DHT22;57554;51.546;6.776;2023-11-21T07:19:37;9.40;80.00
70184;DHT22;57554;51.546;6.776;2023-11-21T07:22:03;9.40;80.00
70184;DHT22;57554;51.546;6.776;2023-11-21T07:24:29;9.40;80.00
70184;DHT22;57554;51.546;6.776;2023-11-21T07:26:57;9.40;80.00
70184;DHT22;57554;51.546;6.776;2023-11-21T07:29:25;9.40;80.10
70184;DHT22;57554;51.546;6.776;2023-11-21T07:31:52;9.40;80.20
70184;DHT22;57554;51.546;6.776;2023-11-21T07:34:19;9.50;80.20
70184;DHT22;57554;51.546;6.776;2023-11-21T07:36:44;9.50;80.10
70184;DHT22;57554;51.546;6.776;2023-11-21T07:39:10;9.50;80.00
70184;DHT22;57554;51.546;6.776;2023-11-21T07:41:36;9.50;80.00
70184;DHT22;57554;51.546;6.776;2023-11-21T07:44:03;9.50;80.00
70184;DHT22;57554;51.546;6.776;2023-11-21T07:46:29;9.50;80.10
70184;DHT22;57554;51.546;6.776;2023-11-21T07:48:54;9.60;80.20
70184;DHT22;57554;51.546;6.776;2023-11-21T07:51:20;9.50;80.10
70184;DHT22;57554;51.546;6.776;2023-11-21T07:53:46;9.50;80.20
70184;DHT22;57554;51.546;6.776;2023-11-21T07:56:11;9.50;80.30
70184;DHT22;57554;51.546;6.776;2023-11-21T07:58:38;9.50;80.40
70184;DHT22;57554;51.546;6.776;2023-11-21T08:01:04;9.50;80.30
70184;DHT22;57554;51.546;6.776;2023-11-21T08:03:30;9.60;80.40
70184;DHT22;57554;51.546;6.776;2023-11-21T08:05:57;9.60;80.40
70184;DHT22;57554;51.546;6.776;2023-11-21T08:08:23;9.50;80.40
70184;DHT22;57554;51.546;6.776;2023-11-21T08:10:49;9.60;80.40
70184;DHT22;57554;51.546;6.776;2023-11-21T08:13:25;9.60;80.50
70184;DHT22;57554;51.546;6.776;2023-11-21T08:15:53;9.60;80.40
70184;DHT22;57554;51.546;6.776;2023-11-21T08:18:19;9.60;80.40
70184;DHT22;57554;51.546;6.776;2023-11-21T08:20:45;9.60;80.40
70184;DHT22;57554;51.546;6.776;2023-11-21T08:23:16;9.60;80.30
70184;DHT22;57554;51.546;6.776;2023-11-21T08:25:45;9.60;80.40
70184;DHT22;57554;51.546;6.776;2023-11-21T08:28:11;9.60;80.50
70184;DHT22;57554;51.546;6.776;2023-11-21T08:30:37;9.60;80.60
70184;DHT22;57554;51.546;6.776;2023-11-21T08:33:03;9.60;80.50
70184;DHT22;57554;51.546;6.776;2023-11-21T08:35:29;9.70;80.60
70184;DHT22;57554;51.546;6.776;2023-11-21T08:37:55;9.70;80.70
70184;DHT22;57554;51.546;6.776;2023-11-21T08:40:21;9.80;80.70
70184;DHT22;57554;51.546;6.776;2023-11-21T08:42:47;9.90;80.50
70184;DHT22;57554;51.546;6.776;2023-11-21T08:45:16;9.90;80.40
70184;DHT22;57554;51.546;6.776;2023-11-21T08:47:43;10.00;80.30
70184;DHT22;57554;51.546;6.776;2023-11-21T08:50:09;10.00;80.10
70184;DHT22;57554;51.546;6.776;2023-11-21T08:52:40;10.10;80.10
70184;DHT22;57554;51.546;6.776;2023-11-21T08:55:06;10.10;80.10
70184;DHT22;57554;51.546;6.776;2023-11-21T08:57:40;10.10;80.20
70184;DHT22;57554;51.546;6.776;2023-11-21T09:00:07;10.20;79.90
70184;DHT22;57554;51.546;6.776;2023-11-21T09:02:37;10.20;79.60
70184;DHT22;57554;51.546;6.776;2023-11-21T09:05:03;10.10;79.60
70184;DHT22;57554;51.546;6.776;2023-11-21T09:07:29;10.10;79.60
70184;DHT22;57554;51.546;6.776;2023-11-21T09:09:56;10.10;79.70
70184;DHT22;57554;51.546;6.776;2023-11-21T09:12:21;10.10;79.80
70184;DHT22;57554;51.546;6.776;2023-11-21T09:14:47;10.20;79.80
70184;DHT22;57554;51.546;6.776;2023-11-21T09:17:12;10.20;79.90
70184;DHT22;57554;51.546;6.776;2023-11-21T09:19:40;10.20;79.80
70184;DHT22;57554;51.546;6.776;2023-11-21T09:22:05;10.20;79.90
70184;DHT22;57554;51.546;6.776;2023-11-21T09:24:32;10.30;79.90
70184;DHT22;57554;51.546;6.776;2023-11-21T09:26:57;10.40;79.90
70184;DHT22;57554;51.546;6.776;2023-11-21T09:29:23;10.40;79.80
70184;DHT22;57554;51.546;6.776;2023-11-21T09:31:48;10.50;79.80
70184;DHT22;57554;51.546;6.776;2023-11-21T09:34:16;10.50;79.60
70184;DHT22;57554;51.546;6.776;2023-11-21T13:32:32;10.10;82.30
70184;DHT22;57554;51.546;6.776;2023-11-21T13:34:58;9.60;85.10
70184;DHT22;57554;51.546;6.776;2023-11-21T13:37:25;9.80;86.60
70184;DHT22;57554;51.546;6.776;2023-11-21T13:39:53;10.00;87.20
70184;DHT22;57554;51.546;6.776;2023-11-21T13:42:20;10.30;87.10
70184;DHT22;57554;51.546;6.776;2023-11-21T13:44:56;10.60;86.60
70184;DHT22;57554;51.546;6.776;2023-11-21T13:47:22;10.90;85.90
70184;DHT22;57554;51.546;6.776;2023-11-21T13:49:50;11.10;85.20
70184;DHT22;57554;51.546;6.776;2023-11-21T13:52:16;11.30;84.60
70184;DHT22;57554;51.546;6.776;2023-11-21T13:54:42;11.40;84.10
70184;DHT22;57554;51.546;6.776;2023-11-21T13:57:08;11.50;83.70
70184;DHT22;57554;51.546;6.776;2023-11-21T13:59:35;11.60;83.30
70184;DHT22;57554;51.546;6.776;2023-11-21T14:02:02;11.70;82.90
70184;DHT22;57554;51.546;6.776;2023-11-21T14:04:42;11.80;82.50
70184;DHT22;57554;51.546;6.776;2023-11-21T14:07:23;11.80;82.20
70184;DHT22;57554;51.546;6.776;2023-11-21T14:10:01;11.90;81.90
70184;DHT22;57554;51.546;6.776;2023-11-21T14:12:27;11.90;81.60
70184;DHT22;57554;51.546;6.776;2023-11-21T14:14:53;11.90;81.20
70184;DHT22;57554;51.546;6.776;2023-11-21T14:17:20;11.90;81.00
70184;DHT22;57554;51.546;6.776;2023-11-21T14:19:49;11.90;80.70
70184;DHT22;57554;51.546;6.776;2023-11-21T14:22:14;11.80;80.60
70184;DHT22;57554;51.546;6.776;2023-11-21T14:24:40;11.80;80.60
70184;DHT22;57554;51.546;6.776;2023-11-21T14:27:13;11.80;80.50
70184;DHT22;57554;51.546;6.776;2023-11-21T14:29:40;11.80;80.50
70184;DHT22;57554;51.546;6.776;2023-11-21T14:32:09;11.90;80.40
70184;DHT22;57554;51.546;6.776;2023-11-21T14:34:34;11.90;80.20
70184;DHT22;57554;51.546;6.776;2023-11-21T14:37:00;11.90;80.00
70184;DHT22;57554;51.546;6.776;2023-11-21T14:39:28;11.90;79.80
70184;DHT22;57554;51.546;6.776;2023-11-21T14:41:55;11.90;79.70
70184;DHT22;57554;51.546;6.776;2023-11-21T14:44:25;11.80;79.60
70184;DHT22;57554;51.546;6.776;2023-11-21T14:46:53;11.80;79.40
70184;DHT22;57554;51.546;6.776;2023-11-21T14:49:20;11.80;79.30
70184;DHT22;57554;51.546;6.776;2023-11-21T14:51:49;11.70;79.30
70184;DHT22;57554;51.546;6.776;2023-11-21T14:54:33;11.70;79.20
70184;DHT22;57554;51.546;6.776;2023-11-21T14:57:09;11.60;79.00
70184;DHT22;57554;51.546;6.776;2023-11-21T14:59:46;11.60;78.90
70184;DHT22;57554;51.546;6.776;2023-11-21T15:02:14;11.50;78.90
70184;DHT22;57554;51.546;6.776;2023-11-21T15:04:47;11.50;78.70
70184;DHT22;57554;51.546;6.776;2023-11-21T15:07:13;11.40;78.70
70184;DHT22;57554;51.546;6.776;2023-11-21T15:09:39;11.40;78.50
70184;DHT22;57554;51.546;6.776;2023-11-21T15:12:09;11.30;78.40
70184;DHT22;57554;51.546;6.776;2023-11-21T15:14:48;11.30;78.40
70184;DHT22;57554;51.546;6.776;2023-11-21T15:17:17;11.20;78.20
70184;DHT22;57554;51.546;6.776;2023-11-21T15:19:54;11.20;78.30
70184;DHT22;57554;51.546;6.776;2023-11-21T15:22:20;11.20;78.20
70184;DHT22;57554;51.546;6.776;2023-11-21T15:24:46;11.10;78.10
70184;DHT22;57554;51.546;6.776;2023-11-21T15:27:13;11.10;78.20
70184;DHT22;57554;51.546;6.776;2023-11-21T15:29:39;11.10;78.10
70184;DHT22;57554;51.546;6.776;2023-11-21T15:32:06;11.10;77.90
70184;DHT22;57554;51.546;6.776;2023-11-21T15:34:33;11.10;77.80
70184;DHT22;57554;51.546;6.776;2023-11-21T15:36:59;11.10;77.80
70184;DHT22;57554;51.546;6.776;2023-11-21T15:39:24;11.10;77.60
70184;DHT22;57554;51.546;6.776;2023-11-21T15:41:55;11.00;77.60
70184;DHT22;57554;51.546;6.776;2023-11-21T15:44:20;11.00;77.40
70184;DHT22;57554;51.546;6.776;2023-11-21T15:46:46;11.00;77.30
70184;DHT22;57554;51.546;6.776;2023-11-21T15:49:13;11.00;77.10
70184;DHT22;57554;51.546;6.776;2023-11-21T15:51:42;10.90;77.10
70184;DHT22;57554;51.546;6.776;2023-11-21T15:54:09;10.90;77.00
70184;DHT22;57554;51.546;6.776;2023-11-21T15:56:34;10.90;77.00
70184;DHT22;57554;51.546;6.776;2023-11-21T15:59:00;10.90;76.80
70184;DHT22;57554;51.546;6.776;2023-11-21T16:01:26;10.80;76.80
70184;DHT22;57554;51.546;6.776;2023-11-21T16:03:52;10.80;76.70
70184;DHT22;57554;51.546;6.776;2023-11-21T16:06:18;10.70;76.60
70184;DHT22;57554;51.546;6.776;2023-11-21T16:08:44;10.60;76.60
70184;DHT22;57554;51.546;6.776;2023-11-21T16:11:09;10.60;76.50
70184;DHT22;57554;51.546;6.776;2023-11-21T16:13:35;10.50;76.40
70184;DHT22;57554;51.546;6.776;2023-11-21T16:16:01;10.50;76.50
70184;DHT22;57554;51.546;6.776;2023-11-21T16:18:27;10.40;76.40
70184;DHT22;57554;51.546;6.776;2023-11-21T16:20:52;10.30;76.50
70184;DHT22;57554;51.546;6.776;2023-11-21T16:23:18;10.30;76.60
70184;DHT22;57554;51.546;6.776;2023-11-21T16:25:43;10.30;76.50
70184;DHT22;57554;51.546;6.776;2023-11-21T16:28:09;10.20;76.50
70184;DHT22;57554;51.546;6.776;2023-11-21T16:30:35;10.20;76.50
70184;DHT22;57554;51.546;6.776;2023-11-21T16:33:01;10.10;76.30
70184;DHT22;57554;51.546;6.776;2023-11-21T16:35:28;10.10;76.10
70184;DHT22;57554;51.546;6.776;2023-11-21T16:37:53;10.00;76.00
70184;DHT22;57554;51.546;6.776;2023-11-21T16:40:19;9.90;76.00
70184;DHT22;57554;51.546;6.776;2023-11-21T16:42:45;9.90;75.90
70184;DHT22;57554;51.546;6.776;2023-11-21T16:45:11;9.90;75.70
70184;DHT22;57554;51.546;6.776;2023-11-21T16:47:37;9.80;75.40
70184;DHT22;57554;51.546;6.776;2023-11-21T16:50:04;9.80;75.30
70184;DHT22;57554;51.546;6.776;2023-11-21T16:52:30;9.70;75.10
70184;DHT22;57554;51.546;6.776;2023-11-21T16:54:56;9.70;75.10
70184;DHT22;57554;51.546;6.776;2023-11-21T16:57:21;9.70;75.00
70184;DHT22;57554;51.546;6.776;2023-11-21T16:59:47;9.60;75.00
70184;DHT22;57554;51.546;6.776;2023-11-21T17:02:20;9.60;75.00
70184;DHT22;57554;51.546;6.776;2023-11-21T17:04:46;9.50;75.10
70184;DHT22;57554;51.546;6.776;2023-11-21T17:07:15;9.50;75.10
70184;DHT22;57554;51.546;6.776;2023-11-21T17:09:41;9.50;75.20
70184;DHT22;57554;51.546;6.776;2023-11-21T17:12:06;9.40;75.30
70184;DHT22;57554;51.546;6.776;2023-11-21T17:14:32;9.40;75.50
70184;DHT22;57554;51.546;6.776;2023-11-21T17:16:58;9.40;75.50
70184;DHT22;57554;51.546;6.776;2023-11-21T17:19:24;9.40;75.40
70184;DHT22;57554;51.546;6.776;2023-11-21T17:21:50;9.40;75.30
70184;DHT22;57554;51.546;6.776;2023-11-21T17:24:16;9.30;75.30
70184;DHT22;57554;51.546;6.776;2023-11-21T17:26:43;9.20;75.40
70184;DHT22;57554;51.546;6.776;2023-11-21T17:29:08;9.20;75.30
70184;DHT22;57554;51.546;6.776;2023-11-21T17:31:36;9.20;75.30
70184;DHT22;57554;51.546;6.776;2023-11-21T17:34:02;9.10;75.30
70184;DHT22;57554;51.546;6.776;2023-11-21T17:36:27;9.10;75.30
70184;DHT22;57554;51.546;6.776;2023-11-21T17:38:53;9.10;75.20
70184;DHT22;57554;51.546;6.776;2023-11-21T17:41:20;9.10;75.20
70184;DHT22;57554;51.546;6.776;2023-11-21T17:43:46;9.10;75.10
70184;DHT22;57554;51.546;6.776;2023-11-21T17:46:17;9.10;75.00
70184;DHT22;57554;51.546;6.776;2023-11-21T17:48:43;9.00;74.80
70184;DHT22;57554;51.546;6.776;2023-11-21T17:51:09;9.00;74.50
70184;DHT22;57554;51.546;6.776;2023-11-21T17:53:34;8.90;74.50
70184;DHT22;57554;51.546;6.776;2023-11-21T17:56:00;8.90;74.50
70184;DHT22;57554;51.546;6.776;2023-11-21T17:58:25;8.90;74.40
70184;DHT22;57554;51.546;6.776;2023-11-21T18:00:51;8.80;74.20
70184;DHT22;57554;51.546;6.776;2023-11-21T18:03:18;8.80;74.10
70184;DHT22;57554;51.546;6.776;2023-11-21T18:05:43;8.80;74.00
70184;DHT22;57554;51.546;6.776;2023-11-21T18:08:09;8.70;74.00
70184;DHT22;57554;51.546;6.776;2023-11-21T18:10:34;8.70;74.00
70184;DHT22;57554;51.546;6.776;2023-11-21T18:13:00;8.70;74.00
70184;DHT22;57554;51.546;6.776;2023-11-21T18:15:26;8.70;73.90
70184;DHT22;57554;51.546;6.776;2023-11-21T18:17:51;8.70;73.80
70184;DHT22;57554;51.546;6.776;2023-11-21T18:20:17;8.70;73.70
70184;DHT22;57554;51.546;6.776;2023-11-21T18:22:42;8.70;73.60
70184;DHT22;57554;51.546;6.776;2023-11-21T18:25:08;8.70;73.60
70184;DHT22;57554;51.546;6.776;2023-11-21T18:27:33;8.70;73.50
70184;DHT22;57554;51.546;6.776;2023-11-21T18:30:00;8.70;73.50
70184;DHT22;57554;51.546;6.776;2023-11-21T18:32:26;8.70;73.40
70184;DHT22;57554;51.546;6.776;2023-11-21T18:34:52;8.70;73.30
70184;DHT22;57554;51.546;6.776;2023-11-21T18:37:19;8.70;73.20
70184;DHT22;57554;51.546;6.776;2023-11-21T18:39:45;8.70;73.20
70184;DHT22;57554;51.546;6.776;2023-11-21T18:42:11;8.70;73.20
70184;DHT22;57554;51.546;6.776;2023-11-21T18:44:43;8.70;73.20
70184;DHT22;57554;51.546;6.776;2023-11-21T18:47:09;8.70;73.10
70184;DHT22;57554;51.546;6.776;2023-11-21T18:49:40;8.70;73.10
70184;DHT22;57554;51.546;6.776;2023-11-21T18:52:06;8.80;73.20
70184;DHT22;57554;51.546;6.776;2023-11-21T18:54:35;8.70;73.10
70184;DHT22;57554;51.546;6.776;2023-11-21T18:57:01;8.70;73.00
70184;DHT22;57554;51.546;6.776;2023-11-21T18:59:26;8.70;73.00
70184;DHT22;57554;51.546;6.776;2023-11-21T19:01:52;8.70;73.00
70184;DHT22;57554;51.546;6.776;2023-11-21T19:04:17;8.70;73.10
70184;DHT22;57554;51.546;6.776;2023-11-21T19:06:46;8.70;73.10
70184;DHT22;57554;51.546;6.776;2023-11-21T19:09:12;8.70;73.00
70184;DHT22;57554;51.546;6.776;2023-11-21T19:11:38;8.70;73.00
70184;DHT22;57554;51.546;6.776;2023-11-21T19:14:03;8.70;73.00
70184;DHT22;57554;51.546;6.776;2023-11-21T19:16:29;8.70;73.00
70184;DHT22;57554;51.546;6.776;2023-11-21T19:18:55;8.70;73.00
70184;DHT22;57554;51.546;6.776;2023-11-21T19:21:21;8.70;72.90
70184;DHT22;57554;51.546;6.776;2023-11-21T19:23:47;8.60;72.90
70184;DHT22;57554;51.546;6.776;2023-11-21T19:26:16;8.60;73.00
70184;DHT22;57554;51.546;6.776;2023-11-21T19:28:42;8.60;73.00
70184;DHT22;57554;51.546;6.776;2023-11-21T19:31:15;8.60;73.00
70184;DHT22;57554;51.546;6.776;2023-11-21T19:33:41;8.70;73.00